QXJ3044 MMPR-MMQT
Flight info
| Callsign | QXJ3044 |
|---|---|
| Flight time | 0h 48m |
| Altitude | 33000 |
| Route | VOLAT1D VOLAT UJ14S GDL UJ14 FRESA |
| Aircraft | E170/M-SDE3GILORVW/S |
Departure
| Time | 2026-04-24 03:10 |
|---|---|
| Airport | Puerto Vallarta International Airport (MMPR) |
Arrival
| Time | 2026-04-24 03:59 |
|---|---|
| Airport | Querétaro Intercontinental Airport (MMQT) |
| Time | Latitude | Longitude | Altitude | Speed | Heading |
|---|---|---|---|---|---|
| 2026-04-24 02:45 | 20.68011 | -105.24754 | 39 ft | 0 kts | 91° |
| 2026-04-24 02:58 | 20.68011 | -105.24760 | 41 ft | 2 kts | 91° |
| 2026-04-24 02:58 | 20.68011 | -105.24777 | 42 ft | 2 kts | 91° |
| 2026-04-24 02:58 | 20.68011 | -105.24793 | 43 ft | 2 kts | 91° |
| 2026-04-24 02:59 | 20.68012 | -105.24807 | 44 ft | 1 kts | 69° |
| 2026-04-24 02:59 | 20.68003 | -105.24815 | 43 ft | 1 kts | 9° |
| 2026-04-24 02:59 | 20.67991 | -105.24812 | 42 ft | 1 kts | 314° |
| 2026-04-24 02:59 | 20.67989 | -105.24810 | 41 ft | 0 kts | 311° |
| 2026-04-24 03:00 | 20.67989 | -105.24811 | 40 ft | 0 kts | 311° |
| 2026-04-24 03:02 | 20.67990 | -105.24812 | 39 ft | 0 kts | 311° |
| 2026-04-24 03:02 | 20.67997 | -105.24820 | 39 ft | 2 kts | 315° |
| 2026-04-24 03:02 | 20.68017 | -105.24829 | 39 ft | 3 kts | 352° |
| 2026-04-24 03:02 | 20.68046 | -105.24818 | 39 ft | 5 kts | 44° |
| 2026-04-24 03:03 | 20.68072 | -105.24789 | 39 ft | 5 kts | 47° |
| 2026-04-24 03:03 | 20.68099 | -105.24758 | 39 ft | 5 kts | 47° |
| 2026-04-24 03:03 | 20.68131 | -105.24731 | 40 ft | 5 kts | 26° |
| 2026-04-24 03:03 | 20.68171 | -105.24720 | 39 ft | 5 kts | 13° |
| 2026-04-24 03:04 | 20.68211 | -105.24708 | 39 ft | 6 kts | 17° |
| 2026-04-24 03:04 | 20.68251 | -105.24695 | 39 ft | 6 kts | 17° |
| 2026-04-24 03:04 | 20.68292 | -105.24682 | 39 ft | 6 kts | 16° |
| 2026-04-24 03:04 | 20.68334 | -105.24669 | 39 ft | 6 kts | 16° |
| 2026-04-24 03:05 | 20.68376 | -105.24656 | 39 ft | 6 kts | 16° |
| 2026-04-24 03:05 | 20.68419 | -105.24643 | 39 ft | 6 kts | 16° |
| 2026-04-24 03:05 | 20.68462 | -105.24625 | 39 ft | 6 kts | 29° |
| 2026-04-24 03:05 | 20.68501 | -105.24590 | 39 ft | 8 kts | 46° |
| 2026-04-24 03:06 | 20.68541 | -105.24546 | 39 ft | 8 kts | 46° |
| 2026-04-24 03:06 | 20.68583 | -105.24498 | 39 ft | 9 kts | 47° |
| 2026-04-24 03:06 | 20.68627 | -105.24448 | 39 ft | 9 kts | 47° |
| 2026-04-24 03:06 | 20.68673 | -105.24395 | 39 ft | 9 kts | 47° |
| 2026-04-24 03:07 | 20.68722 | -105.24341 | 39 ft | 10 kts | 46° |
| 2026-04-24 03:07 | 20.68770 | -105.24286 | 40 ft | 10 kts | 46° |
| 2026-04-24 03:07 | 20.68832 | -105.24258 | 40 ft | 10 kts | 351° |
| 2026-04-24 03:07 | 20.68870 | -105.24286 | 39 ft | 0 kts | 314° |
| 2026-04-24 03:08 | 20.68881 | -105.24297 | 39 ft | 2 kts | 313° |
| 2026-04-24 03:08 | 20.68899 | -105.24318 | 39 ft | 4 kts | 313° |
| 2026-04-24 03:09 | 20.68922 | -105.24361 | 39 ft | 9 kts | 265° |
| 2026-04-24 03:09 | 20.68860 | -105.24440 | 39 ft | 26 kts | 227° |
| 2026-04-24 03:09 | 20.68578 | -105.24765 | 39 ft | 89 kts | 227° |
| 2026-04-24 03:09 | 20.68034 | -105.25388 | 40 ft | 138 kts | 227° |
| 2026-04-24 03:10 | 20.67298 | -105.26197 | 155 ft | 164 kts | 225° |
| 2026-04-24 03:10 | 20.66447 | -105.27082 | 605 ft | 173 kts | 224° |
| 2026-04-24 03:10 | 20.65537 | -105.27986 | 969 ft | 189 kts | 226° |
| 2026-04-24 03:10 | 20.64662 | -105.29043 | 1304 ft | 181 kts | 233° |
| 2026-04-24 03:11 | 20.63933 | -105.30137 | 1425 ft | 191 kts | 231° |
| 2026-04-24 03:11 | 20.63007 | -105.31197 | 2002 ft | 200 kts | 227° |
| 2026-04-24 03:11 | 20.62036 | -105.32261 | 2749 ft | 199 kts | 227° |
| 2026-04-24 03:11 | 20.61086 | -105.33293 | 3443 ft | 199 kts | 227° |
| 2026-04-24 03:12 | 20.60106 | -105.34350 | 4124 ft | 200 kts | 227° |
| 2026-04-24 03:12 | 20.58943 | -105.35123 | 4707 ft | 206 kts | 190° |
| 2026-04-24 03:12 | 20.57539 | -105.34882 | 5282 ft | 210 kts | 153° |
| 2026-04-24 03:12 | 20.56254 | -105.34154 | 5887 ft | 212 kts | 152° |
| 2026-04-24 03:13 | 20.54942 | -105.33410 | 6433 ft | 216 kts | 152° |
| 2026-04-24 03:13 | 20.53525 | -105.32607 | 6576 ft | 244 kts | 152° |
| 2026-04-24 03:13 | 20.51964 | -105.31723 | 6882 ft | 261 kts | 152° |
| 2026-04-24 03:13 | 20.50391 | -105.30833 | 7853 ft | 250 kts | 153° |
| 2026-04-24 03:14 | 20.48888 | -105.29983 | 8651 ft | 243 kts | 153° |
| 2026-04-24 03:14 | 20.47405 | -105.29144 | 9275 ft | 243 kts | 153° |
| 2026-04-24 03:14 | 20.45894 | -105.28289 | 9823 ft | 247 kts | 153° |
| 2026-04-24 03:14 | 20.44390 | -105.27440 | 10388 ft | 249 kts | 153° |
| 2026-04-24 03:15 | 20.42849 | -105.26569 | 10943 ft | 252 kts | 153° |
| 2026-04-24 03:15 | 20.41338 | -105.25616 | 11488 ft | 254 kts | 136° |
| 2026-04-24 03:15 | 20.40437 | -105.24024 | 11849 ft | 262 kts | 101° |
| 2026-04-24 03:15 | 20.40290 | -105.22006 | 11931 ft | 283 kts | 90° |
| 2026-04-24 03:16 | 20.40238 | -105.19833 | 11985 ft | 307 kts | 91° |
| 2026-04-24 03:16 | 20.40169 | -105.17493 | 12029 ft | 329 kts | 91° |
| 2026-04-24 03:16 | 20.40088 | -105.15002 | 12313 ft | 341 kts | 91° |
| 2026-04-24 03:16 | 20.40001 | -105.12483 | 12838 ft | 344 kts | 91° |
| 2026-04-24 03:17 | 20.39910 | -105.09927 | 13394 ft | 345 kts | 91° |
| 2026-04-24 03:17 | 20.39816 | -105.07371 | 13943 ft | 346 kts | 91° |
| 2026-04-24 03:17 | 20.39720 | -105.04810 | 14434 ft | 349 kts | 91° |
| 2026-04-24 03:17 | 20.39623 | -105.02213 | 14919 ft | 352 kts | 91° |
| 2026-04-24 03:18 | 20.39525 | -104.99620 | 15393 ft | 354 kts | 91° |
| 2026-04-24 03:18 | 20.39425 | -104.97001 | 15846 ft | 357 kts | 91° |
| 2026-04-24 03:18 | 20.39323 | -104.94347 | 16313 ft | 359 kts | 91° |
| 2026-04-24 03:18 | 20.39222 | -104.91721 | 16766 ft | 361 kts | 91° |
| 2026-04-24 03:19 | 20.39118 | -104.89050 | 17209 ft | 363 kts | 91° |
| 2026-04-24 03:19 | 20.39013 | -104.86337 | 17651 ft | 365 kts | 91° |
| 2026-04-24 03:19 | 20.38907 | -104.83637 | 18064 ft | 369 kts | 91° |
| 2026-04-24 03:19 | 20.38800 | -104.80903 | 18467 ft | 372 kts | 91° |
| 2026-04-24 03:20 | 20.38691 | -104.78147 | 18872 ft | 375 kts | 91° |
| 2026-04-24 03:20 | 20.38582 | -104.75383 | 19292 ft | 377 kts | 91° |
| 2026-04-24 03:20 | 20.38471 | -104.72577 | 19716 ft | 379 kts | 91° |
| 2026-04-24 03:20 | 20.38359 | -104.69788 | 20087 ft | 382 kts | 91° |
| 2026-04-24 03:21 | 20.38244 | -104.66928 | 20480 ft | 384 kts | 91° |
| 2026-04-24 03:21 | 20.38130 | -104.64085 | 20870 ft | 387 kts | 91° |
| 2026-04-24 03:21 | 20.38015 | -104.61237 | 21246 ft | 389 kts | 91° |
| 2026-04-24 03:21 | 20.37898 | -104.58339 | 21602 ft | 392 kts | 91° |
| 2026-04-24 03:22 | 20.37779 | -104.55444 | 21947 ft | 395 kts | 91° |
| 2026-04-24 03:22 | 20.37660 | -104.52516 | 22302 ft | 397 kts | 91° |
| 2026-04-24 03:22 | 20.37539 | -104.49580 | 22659 ft | 400 kts | 91° |
| 2026-04-24 03:22 | 20.37417 | -104.46618 | 23005 ft | 402 kts | 91° |
| 2026-04-24 03:23 | 20.37293 | -104.43632 | 23350 ft | 404 kts | 91° |
| 2026-04-24 03:23 | 20.37168 | -104.40640 | 23666 ft | 407 kts | 91° |
| 2026-04-24 03:23 | 20.37043 | -104.37623 | 24010 ft | 409 kts | 91° |
| 2026-04-24 03:23 | 20.36917 | -104.34628 | 24365 ft | 411 kts | 91° |
| 2026-04-24 03:24 | 20.36787 | -104.31542 | 24683 ft | 413 kts | 91° |
| 2026-04-24 03:24 | 20.36925 | -104.28474 | 24980 ft | 413 kts | 79° |
| 2026-04-24 03:24 | 20.37420 | -104.25456 | 25275 ft | 415 kts | 78° |
| 2026-04-24 03:24 | 20.37914 | -104.22439 | 25572 ft | 417 kts | 78° |
| 2026-04-24 03:25 | 20.38411 | -104.19380 | 25846 ft | 420 kts | 78° |
| 2026-04-24 03:25 | 20.38909 | -104.16296 | 26148 ft | 422 kts | 78° |
| 2026-04-24 03:25 | 20.39403 | -104.13222 | 26430 ft | 424 kts | 78° |
| 2026-04-24 03:25 | 20.39898 | -104.10141 | 26687 ft | 427 kts | 78° |
| 2026-04-24 03:26 | 20.40399 | -104.07012 | 26951 ft | 429 kts | 78° |
| 2026-04-24 03:26 | 20.40899 | -104.03886 | 27199 ft | 432 kts | 78° |
| 2026-04-24 03:26 | 20.41407 | -104.00703 | 27478 ft | 433 kts | 78° |
| 2026-04-24 03:26 | 20.41913 | -103.97535 | 27727 ft | 436 kts | 78° |
| 2026-04-24 03:27 | 20.42420 | -103.94350 | 27999 ft | 437 kts | 78° |
| 2026-04-24 03:27 | 20.42929 | -103.91155 | 28231 ft | 440 kts | 78° |
| 2026-04-24 03:27 | 20.43440 | -103.87936 | 28525 ft | 441 kts | 78° |
| 2026-04-24 03:27 | 20.43943 | -103.84764 | 28774 ft | 442 kts | 78° |
| 2026-04-24 03:28 | 20.44460 | -103.81501 | 29043 ft | 444 kts | 78° |
| 2026-04-24 03:28 | 20.44973 | -103.78253 | 29293 ft | 445 kts | 78° |
| 2026-04-24 03:28 | 20.45485 | -103.75012 | 29559 ft | 447 kts | 78° |
| 2026-04-24 03:28 | 20.46004 | -103.71718 | 29764 ft | 449 kts | 78° |
| 2026-04-24 03:29 | 20.46515 | -103.68473 | 30025 ft | 450 kts | 78° |
| 2026-04-24 03:29 | 20.47033 | -103.65177 | 30266 ft | 452 kts | 78° |
| 2026-04-24 03:29 | 20.47556 | -103.61850 | 30481 ft | 454 kts | 78° |
| 2026-04-24 03:29 | 20.48073 | -103.58555 | 30664 ft | 457 kts | 78° |
| 2026-04-24 03:30 | 20.48596 | -103.55215 | 30872 ft | 458 kts | 78° |
| 2026-04-24 03:30 | 20.49121 | -103.51861 | 31082 ft | 460 kts | 78° |
| 2026-04-24 03:30 | 20.49646 | -103.48501 | 31322 ft | 461 kts | 78° |
| 2026-04-24 03:30 | 20.50176 | -103.45105 | 31483 ft | 464 kts | 78° |
| 2026-04-24 03:31 | 20.50706 | -103.41706 | 31731 ft | 464 kts | 78° |
| 2026-04-24 03:31 | 20.51227 | -103.38354 | 32022 ft | 464 kts | 78° |
| 2026-04-24 03:31 | 20.51757 | -103.34942 | 32311 ft | 463 kts | 78° |
| 2026-04-24 03:31 | 20.52270 | -103.31541 | 32575 ft | 463 kts | 81° |
| 2026-04-24 03:32 | 20.52481 | -103.28158 | 32823 ft | 465 kts | 86° |
| 2026-04-24 03:32 | 20.52603 | -103.24711 | 33090 ft | 464 kts | 85° |
| 2026-04-24 03:32 | 20.52729 | -103.21302 | 33191 ft | 459 kts | 85° |
| 2026-04-24 03:33 | 20.52989 | -103.14452 | 33231 ft | 469 kts | 85° |
| 2026-04-24 03:33 | 20.53254 | -103.07455 | 33267 ft | 478 kts | 85° |
| 2026-04-24 03:34 | 20.53522 | -103.00335 | 33281 ft | 487 kts | 85° |
| 2026-04-24 03:34 | 20.53792 | -102.93063 | 33285 ft | 494 kts | 85° |
| 2026-04-24 03:35 | 20.54060 | -102.85741 | 33280 ft | 493 kts | 85° |
| 2026-04-24 03:35 | 20.54324 | -102.78489 | 33279 ft | 492 kts | 85° |
| 2026-04-24 03:36 | 20.54586 | -102.71220 | 33285 ft | 492 kts | 85° |
| 2026-04-24 03:36 | 20.54845 | -102.63932 | 33292 ft | 492 kts | 85° |
| 2026-04-24 03:37 | 20.55100 | -102.56677 | 33295 ft | 492 kts | 85° |
| 2026-04-24 03:37 | 20.55354 | -102.49365 | 33305 ft | 492 kts | 85° |
| 2026-04-24 03:38 | 20.55604 | -102.42090 | 33305 ft | 492 kts | 85° |
| 2026-04-24 03:38 | 20.55849 | -102.34881 | 33312 ft | 492 kts | 86° |
| 2026-04-24 03:39 | 20.56094 | -102.27565 | 33317 ft | 490 kts | 86° |
| 2026-04-24 03:39 | 20.56334 | -102.20322 | 33320 ft | 492 kts | 86° |
| 2026-04-24 03:40 | 20.56572 | -102.13034 | 33319 ft | 491 kts | 86° |
| 2026-04-24 03:40 | 20.56805 | -102.05774 | 33325 ft | 491 kts | 86° |
| 2026-04-24 03:41 | 20.57033 | -101.98510 | 33331 ft | 492 kts | 86° |
| 2026-04-24 03:41 | 20.57259 | -101.91227 | 33336 ft | 493 kts | 86° |
| 2026-04-24 03:42 | 20.57483 | -101.83915 | 33348 ft | 492 kts | 86° |
| 2026-04-24 03:42 | 20.57701 | -101.76669 | 33356 ft | 487 kts | 86° |
| 2026-04-24 03:43 | 20.57915 | -101.69486 | 33352 ft | 485 kts | 86° |
| 2026-04-24 03:43 | 20.58021 | -101.65896 | 33242 ft | 487 kts | 86° |
| 2026-04-24 03:43 | 20.58125 | -101.62313 | 32697 ft | 487 kts | 86° |
| 2026-04-24 03:43 | 20.58230 | -101.58688 | 32152 ft | 486 kts | 86° |
| 2026-04-24 03:44 | 20.58333 | -101.55120 | 31616 ft | 482 kts | 86° |
| 2026-04-24 03:44 | 20.58434 | -101.51566 | 31080 ft | 477 kts | 85° |
| 2026-04-24 03:44 | 20.58534 | -101.48081 | 30556 ft | 473 kts | 85° |
| 2026-04-24 03:44 | 20.58632 | -101.44566 | 29588 ft | 478 kts | 85° |
| 2026-04-24 03:45 | 20.58732 | -101.41035 | 27968 ft | 480 kts | 85° |
| 2026-04-24 03:45 | 20.58827 | -101.37590 | 26466 ft | 466 kts | 86° |
| 2026-04-24 03:45 | 20.58921 | -101.34169 | 25086 ft | 460 kts | 86° |
| 2026-04-24 03:45 | 20.59013 | -101.30817 | 24289 ft | 451 kts | 86° |
| 2026-04-24 03:46 | 20.59103 | -101.27516 | 23756 ft | 437 kts | 86° |
| 2026-04-24 03:46 | 20.59190 | -101.24314 | 23273 ft | 422 kts | 86° |
| 2026-04-24 03:46 | 20.59274 | -101.21212 | 22817 ft | 410 kts | 86° |
| 2026-04-24 03:46 | 20.59356 | -101.18190 | 22379 ft | 407 kts | 86° |
| 2026-04-24 03:47 | 20.59437 | -101.15177 | 21942 ft | 407 kts | 86° |
| 2026-04-24 03:47 | 20.59518 | -101.12166 | 21496 ft | 406 kts | 86° |
| 2026-04-24 03:47 | 20.59597 | -101.09162 | 21052 ft | 403 kts | 86° |
| 2026-04-24 03:47 | 20.59674 | -101.06220 | 20615 ft | 399 kts | 86° |
| 2026-04-24 03:48 | 20.59751 | -101.03281 | 20354 ft | 393 kts | 86° |
| 2026-04-24 03:48 | 20.59827 | -101.00362 | 20331 ft | 395 kts | 86° |
| 2026-04-24 03:48 | 20.59904 | -100.97386 | 19415 ft | 408 kts | 86° |
| 2026-04-24 03:48 | 20.59980 | -100.94407 | 18688 ft | 402 kts | 86° |
| 2026-04-24 03:49 | 20.60055 | -100.91453 | 18201 ft | 389 kts | 86° |
| 2026-04-24 03:49 | 20.60126 | -100.88624 | 17768 ft | 376 kts | 86° |
| 2026-04-24 03:49 | 20.60195 | -100.85912 | 17370 ft | 368 kts | 86° |
| 2026-04-24 03:49 | 20.60263 | -100.83195 | 16968 ft | 368 kts | 86° |
| 2026-04-24 03:50 | 20.60332 | -100.80457 | 16564 ft | 368 kts | 87° |
| 2026-04-24 03:50 | 20.60399 | -100.77731 | 16156 ft | 368 kts | 86° |
| 2026-04-24 03:50 | 20.60467 | -100.74998 | 15751 ft | 366 kts | 87° |
| 2026-04-24 03:50 | 20.60533 | -100.72292 | 15354 ft | 365 kts | 87° |
| 2026-04-24 03:51 | 20.60598 | -100.69599 | 14958 ft | 363 kts | 87° |
| 2026-04-24 03:51 | 20.60662 | -100.66938 | 14567 ft | 358 kts | 87° |
| 2026-04-24 03:51 | 20.60723 | -100.64371 | 14152 ft | 339 kts | 87° |
| 2026-04-24 03:51 | 20.60781 | -100.61924 | 13777 ft | 321 kts | 87° |
| 2026-04-24 03:52 | 20.60837 | -100.59572 | 13350 ft | 309 kts | 87° |
| 2026-04-24 03:52 | 20.60890 | -100.57324 | 12927 ft | 298 kts | 87° |
| 2026-04-24 03:52 | 20.60941 | -100.55161 | 12516 ft | 289 kts | 87° |
| 2026-04-24 03:52 | 20.60991 | -100.53057 | 12119 ft | 281 kts | 87° |
| 2026-04-24 03:53 | 20.61038 | -100.51006 | 11747 ft | 278 kts | 87° |
| 2026-04-24 03:53 | 20.61366 | -100.49018 | 11395 ft | 269 kts | 64° |
| 2026-04-24 03:53 | 20.62198 | -100.47251 | 11080 ft | 262 kts | 60° |
| 2026-04-24 03:53 | 20.63021 | -100.45556 | 10773 ft | 256 kts | 60° |
| 2026-04-24 03:54 | 20.63827 | -100.43896 | 10440 ft | 248 kts | 60° |
| 2026-04-24 03:54 | 20.64602 | -100.42297 | 10169 ft | 236 kts | 60° |
| 2026-04-24 03:54 | 20.65331 | -100.40787 | 9930 ft | 225 kts | 63° |
| 2026-04-24 03:54 | 20.65560 | -100.39198 | 9757 ft | 214 kts | 99° |
| 2026-04-24 03:55 | 20.65240 | -100.37657 | 9508 ft | 207 kts | 102° |
| 2026-04-24 03:55 | 20.64934 | -100.36190 | 9253 ft | 201 kts | 102° |
| 2026-04-24 03:55 | 20.64644 | -100.34757 | 9013 ft | 196 kts | 102° |
| 2026-04-24 03:55 | 20.64366 | -100.33355 | 8776 ft | 194 kts | 102° |
| 2026-04-24 03:56 | 20.64098 | -100.31973 | 8599 ft | 182 kts | 102° |
| 2026-04-24 03:56 | 20.63900 | -100.30642 | 8199 ft | 180 kts | 98° |
| 2026-04-24 03:56 | 20.63755 | -100.29346 | 7985 ft | 172 kts | 95° |
| 2026-04-24 03:56 | 20.63651 | -100.28127 | 7656 ft | 164 kts | 98° |
| 2026-04-24 03:57 | 20.63453 | -100.26950 | 7283 ft | 159 kts | 102° |
| 2026-04-24 03:57 | 20.63187 | -100.25820 | 6975 ft | 154 kts | 105° |
| 2026-04-24 03:57 | 20.62917 | -100.24724 | 6775 ft | 152 kts | 105° |
| 2026-04-24 03:57 | 20.62668 | -100.23631 | 6806 ft | 153 kts | 102° |
| 2026-04-24 03:58 | 20.62471 | -100.22495 | 6630 ft | 156 kts | 100° |
| 2026-04-24 03:58 | 20.62259 | -100.21343 | 6472 ft | 155 kts | 102° |
| 2026-04-24 03:58 | 20.62051 | -100.20244 | 6363 ft | 148 kts | 101° |
| 2026-04-24 03:58 | 20.61861 | -100.19205 | 6281 ft | 131 kts | 101° |
| 2026-04-24 03:59 | 20.61703 | -100.18379 | 6288 ft | 94 kts | 100° |
| 2026-04-24 03:59 | 20.61616 | -100.17907 | 6296 ft | 49 kts | 100° |
| 2026-04-24 03:59 | 20.61598 | -100.17637 | 6302 ft | 25 kts | 77° |
| 2026-04-24 03:59 | 20.61648 | -100.17474 | 6305 ft | 19 kts | 70° |
| 2026-04-24 04:00 | 20.61666 | -100.17429 | 6306 ft | 2 kts | 49° |
| 2026-04-24 04:00 | 20.61682 | -100.17426 | 6306 ft | 2 kts | 344° |
| 2026-04-24 04:00 | 20.61697 | -100.17448 | 6306 ft | 5 kts | 284° |
| 2026-04-24 04:00 | 20.61705 | -100.17496 | 6305 ft | 7 kts | 281° |
| 2026-04-24 04:01 | 20.61717 | -100.17560 | 6303 ft | 9 kts | 282° |
| 2026-04-24 04:01 | 20.61732 | -100.17638 | 6301 ft | 11 kts | 281° |
| 2026-04-24 04:01 | 20.61749 | -100.17727 | 6299 ft | 13 kts | 281° |
| 2026-04-24 04:01 | 20.61768 | -100.17826 | 6297 ft | 14 kts | 281° |
| 2026-04-24 04:02 | 20.61787 | -100.17934 | 6295 ft | 15 kts | 281° |
| 2026-04-24 04:02 | 20.61808 | -100.18053 | 6292 ft | 16 kts | 281° |
| 2026-04-24 04:02 | 20.61831 | -100.18178 | 6290 ft | 17 kts | 282° |
| 2026-04-24 04:02 | 20.61856 | -100.18310 | 6288 ft | 18 kts | 281° |
| 2026-04-24 04:03 | 20.61881 | -100.18448 | 6287 ft | 19 kts | 281° |
| 2026-04-24 04:03 | 20.61906 | -100.18587 | 6285 ft | 19 kts | 281° |
| 2026-04-24 04:03 | 20.61931 | -100.18687 | 6284 ft | 9 kts | 312° |
| 2026-04-24 04:03 | 20.61995 | -100.18693 | 6284 ft | 9 kts | 11° |
| 2026-04-24 04:04 | 20.62059 | -100.18681 | 6284 ft | 9 kts | 6° |
| 2026-04-24 04:04 | 20.62102 | -100.18707 | 6284 ft | 7 kts | 328° |
| 2026-04-24 04:04 | 20.62151 | -100.18708 | 6284 ft | 7 kts | 11° |
| 2026-04-24 04:04 | 20.62188 | -100.18701 | 6284 ft | 0 kts | 9° |
| 2026-04-24 04:05 | 20.62188 | -100.18700 | 6284 ft | 0 kts | 9° |